메인 페이지
METAR-TAF:

METAR-TAF

공항 :

오타와 맥도널드 카르티에 국제공항

오타와, 온타리오, 캐나다

위도: 45-19N, 경도: 075-40W, 고도: 116m

현재 날씨관측

예보는 57분 전, 03:00시(UTC)에 발표되었습니다.
서북서17kt, 순간 최대 풍속 26kt
온도 -10°C
습도 44%
기압 1015 hPa
시정: 24.1km
고도 10000ft 상공 흐림

METAR: CYOW 050300Z 30017G26KT 15SM OVC100 M10/M20 A2997 RMK AC8 SLP158

시각: 22:57 (03:57 UTC)

예보

예보는 1 시간 18분 전, 02:39시(UTC)에 발표되었습니다.
예보 대상 시간: 05일 03시부터 05일 24시까지 (UTC)
서북서15kt, 순간 최대 풍속 25kt
시정: 10km
고도 8000ft 상공 구름 보통
고도 10000ft 상공 구름 많음
05일 1600시부터 (UTC)
서북서15kt, 순간 최대 풍속 25kt
시정: 9.7km
고도 3000ft 상공 구름 많음
고도 10000ft 상공 흐림
약한소낙눈
05일 2100시부터 (UTC)
북서15kt, 순간 최대 풍속 25kt
시정: 10km
고도 4000ft 상공 구름 많음
전환 중
05일 22시부터 05일 24시까지 (UTC)
북서15kt

TAF: CYOW 050239Z 0503/0524 29015G25KT P6SM SCT080 BKN100 FM051600 29015G25KT 6SM -SHSN BKN030 OVC100 FM052100 31015G25KT P6SM BKN040 BECMG 0522/0524 32015KT RMK NXT FCST BY 050600Z

4,000개 이상의 공항 관측 자료 및 예보 (METAR 및 TAF 보고).

지도상에서 검색 가능한 기상관측소가 노란 점과 빨간 점으로 표시되어 있습니다.

기상관측소 명을 보려면 표시 위로 마우스를 이동하세요.

날씨 관측과 예보를 보려면 클릭하세요.

지도 변경 : 확대하려면 엑스 표시가 있는 녹색 버튼, 축소하려면 빼기 표시가 있는 녹색 버튼, 다음 페이지의 지도를 보려면 녹색 화살표를 클릭하세요.


METAR-TAF: